sensor_id;sensor_type;location;lat;lon;timestamp;pressure;altitude;pressure_sealevel;temperature
78917;BMP280;68315;48.608;11.436;2023-12-04T00:00:05;97531.31;;;-11.64
78917;BMP280;68315;48.608;11.436;2023-12-04T00:02:32;97528.34;;;-11.59
78917;BMP280;68315;48.608;11.436;2023-12-04T00:04:57;97525.00;;;-11.52
78917;BMP280;68315;48.608;11.436;2023-12-04T00:07:22;97519.31;;;-11.54
78917;BMP280;68315;48.608;11.436;2023-12-04T00:09:48;97513.56;;;-11.60
78917;BMP280;68315;48.608;11.436;2023-12-04T00:12:13;97505.25;;;-11.62
78917;BMP280;68315;48.608;11.436;2023-12-04T00:14:38;97512.03;;;-11.65
78917;BMP280;68315;48.608;11.436;2023-12-04T00:17:03;97505.56;;;-11.64
78917;BMP280;68315;48.608;11.436;2023-12-04T00:19:29;97498.44;;;-11.59
78917;BMP280;68315;48.608;11.436;2023-12-04T00:21:54;97496.91;;;-11.60
78917;BMP280;68315;48.608;11.436;2023-12-04T00:24:19;97490.50;;;-11.59
78917;BMP280;68315;48.608;11.436;2023-12-04T00:26:44;97487.47;;;-11.58
78917;BMP280;68315;48.608;11.436;2023-12-04T00:29:10;97486.34;;;-11.57
78917;BMP280;68315;48.608;11.436;2023-12-04T00:31:35;97485.59;;;-11.57
78917;BMP280;68315;48.608;11.436;2023-12-04T00:34:00;97486.69;;;-11.58
78917;BMP280;68315;48.608;11.436;2023-12-04T00:36:25;97490.53;;;-11.56
78917;BMP280;68315;48.608;11.436;2023-12-04T00:38:50;97488.28;;;-11.54
78917;BMP280;68315;48.608;11.436;2023-12-04T00:41:16;97491.69;;;-11.53
78917;BMP280;68315;48.608;11.436;2023-12-04T00:43:41;97486.34;;;-11.57
78917;BMP280;68315;48.608;11.436;2023-12-04T00:46:06;97492.00;;;-11.58
78917;BMP280;68315;48.608;11.436;2023-12-04T00:48:31;97479.91;;;-11.59
78917;BMP280;68315;48.608;11.436;2023-12-04T00:50:57;97480.66;;;-11.55
78917;BMP280;68315;48.608;11.436;2023-12-04T00:53:23;97486.03;;;-11.48
78917;BMP280;68315;48.608;11.436;2023-12-04T00:55:48;97486.47;;;-11.43
78917;BMP280;68315;48.608;11.436;2023-12-04T00:58:13;97482.28;;;-11.44
78917;BMP280;68315;48.608;11.436;2023-12-04T01:00:38;97475.91;;;-11.39
78917;BMP280;68315;48.608;11.436;2023-12-04T01:03:04;97479.72;;;-11.33
78917;BMP280;68315;48.608;11.436;2023-12-04T01:05:29;97471.78;;;-11.30
78917;BMP280;68315;48.608;11.436;2023-12-04T01:07:54;97472.53;;;-11.33
78917;BMP280;68315;48.608;11.436;2023-12-04T01:10:20;97471.72;;;-11.40
78917;BMP280;68315;48.608;11.436;2023-12-04T01:12:45;97466.03;;;-11.42
78917;BMP280;68315;48.608;11.436;2023-12-04T01:15:10;97446.75;;;-11.39
78917;BMP280;68315;48.608;11.436;2023-12-04T01:17:35;97454.69;;;-11.36
78917;BMP280;68315;48.608;11.436;2023-12-04T01:20:01;97442.25;;;-11.32
78917;BMP280;68315;48.608;11.436;2023-12-04T01:22:26;97449.06;;;-11.27
78917;BMP280;68315;48.608;11.436;2023-12-04T01:24:51;97452.19;;;-11.18
78917;BMP280;68315;48.608;11.436;2023-12-04T01:27:16;97446.91;;;-11.11
78917;BMP280;68315;48.608;11.436;2023-12-04T01:29:42;97445.44;;;-11.08
78917;BMP280;68315;48.608;11.436;2023-12-04T01:32:07;97443.16;;;-11.06
78917;BMP280;68315;48.608;11.436;2023-12-04T01:34:32;97443.91;;;-11.09
78917;BMP280;68315;48.608;11.436;2023-12-04T01:36:58;97440.06;;;-11.15
78917;BMP280;68315;48.608;11.436;2023-12-04T01:39:23;97432.47;;;-11.21
78917;BMP280;68315;48.608;11.436;2023-12-04T01:41:48;97428.69;;;-11.20
78917;BMP280;68315;48.608;11.436;2023-12-04T01:44:13;97421.88;;;-11.21
78917;BMP280;68315;48.608;11.436;2023-12-04T01:46:39;97419.19;;;-11.24
78917;BMP280;68315;48.608;11.436;2023-12-04T01:49:04;97414.22;;;-11.36
78917;BMP280;68315;48.608;11.436;2023-12-04T01:51:30;97411.88;;;-11.45
78917;BMP280;68315;48.608;11.436;2023-12-04T01:53:58;97405.38;;;-11.54
78917;BMP280;68315;48.608;11.436;2023-12-04T01:56:24;97402.69;;;-11.58
78917;BMP280;68315;48.608;11.436;2023-12-04T01:58:50;97395.50;;;-11.57
78917;BMP280;68315;48.608;11.436;2023-12-04T02:01:15;97398.19;;;-11.54
78917;BMP280;68315;48.608;11.436;2023-12-04T02:03:41;97388.78;;;-11.48
78917;BMP280;68315;48.608;11.436;2023-12-04T02:06:07;97396.78;;;-11.37
78917;BMP280;68315;48.608;11.436;2023-12-04T02:08:33;97395.31;;;-11.28
78917;BMP280;68315;48.608;11.436;2023-12-04T02:10:59;97385.44;;;-11.27
78917;BMP280;68315;48.608;11.436;2023-12-04T02:13:24;97390.75;;;-11.27
78917;BMP280;68315;48.608;11.436;2023-12-04T02:15:53;97385.06;;;-11.33
78917;BMP280;68315;48.608;11.436;2023-12-04T02:18:19;97383.88;;;-11.42
78917;BMP280;68315;48.608;11.436;2023-12-04T02:20:44;97379.56;;;-11.65
78917;BMP280;68315;48.608;11.436;2023-12-04T02:23:10;97374.16;;;-11.79
78917;BMP280;68315;48.608;11.436;2023-12-04T02:25:35;97382.78;;;-11.85
78917;BMP280;68315;48.608;11.436;2023-12-04T02:28:03;97380.50;;;-11.90
78917;BMP280;68315;48.608;11.436;2023-12-04T02:30:30;97356.25;;;-11.92
78917;BMP280;68315;48.608;11.436;2023-12-04T02:32:58;97364.97;;;-11.92
78917;BMP280;68315;48.608;11.436;2023-12-04T02:35:27;97369.84;;;-11.97
78917;BMP280;68315;48.608;11.436;2023-12-04T02:37:54;97360.41;;;-11.98
78917;BMP280;68315;48.608;11.436;2023-12-04T02:40:20;97358.09;;;-12.00
78917;BMP280;68315;48.608;11.436;2023-12-04T02:42:46;97357.75;;;-11.95
78917;BMP280;68315;48.608;11.436;2023-12-04T02:45:11;97358.06;;;-12.03
78917;BMP280;68315;48.608;11.436;2023-12-04T02:47:36;97361.34;;;-12.17
78917;BMP280;68315;48.608;11.436;2023-12-04T02:50:02;97348.13;;;-12.17
78917;BMP280;68315;48.608;11.436;2023-12-04T02:52:27;97341.00;;;-12.13
78917;BMP280;68315;48.608;11.436;2023-12-04T02:54:52;97340.63;;;-12.08
78917;BMP280;68315;48.608;11.436;2023-12-04T02:57:18;97339.56;;;-12.00
78917;BMP280;68315;48.608;11.436;2023-12-04T02:59:43;97340.34;;;-11.92
78917;BMP280;68315;48.608;11.436;2023-12-04T03:02:08;97345.31;;;-11.91
78917;BMP280;68315;48.608;11.436;2023-12-04T03:04:34;97339.66;;;-11.86
78917;BMP280;68315;48.608;11.436;2023-12-04T03:06:59;97332.53;;;-11.82
78917;BMP280;68315;48.608;11.436;2023-12-04T03:09:25;97328.00;;;-11.78
78917;BMP280;68315;48.608;11.436;2023-12-04T03:11:50;97326.47;;;-11.79
78917;BMP280;68315;48.608;11.436;2023-12-04T03:14:15;97317.00;;;-11.80
78917;BMP280;68315;48.608;11.436;2023-12-04T03:16:40;97328.75;;;-11.84
78917;BMP280;68315;48.608;11.436;2023-12-04T03:19:06;97327.59;;;-11.83
78917;BMP280;68315;48.608;11.436;2023-12-04T03:21:31;97318.53;;;-11.82
78917;BMP280;68315;48.608;11.436;2023-12-04T03:23:56;97315.13;;;-11.79
78917;BMP280;68315;48.608;11.436;2023-12-04T03:26:21;97310.22;;;-11.77
78917;BMP280;68315;48.608;11.436;2023-12-04T03:28:47;97316.66;;;-11.75
78917;BMP280;68315;48.608;11.436;2023-12-04T03:31:12;97316.28;;;-11.77
78917;BMP280;68315;48.608;11.436;2023-12-04T03:33:37;97319.75;;;-11.69
78917;BMP280;68315;48.608;11.436;2023-12-04T03:36:03;97313.31;;;-11.68
78917;BMP280;68315;48.608;11.436;2023-12-04T03:38:28;97317.53;;;-11.60
78917;BMP280;68315;48.608;11.436;2023-12-04T03:40:53;97313.75;;;-11.59
78917;BMP280;68315;48.608;11.436;2023-12-04T03:43:19;97309.97;;;-11.61
78917;BMP280;68315;48.608;11.436;2023-12-04T03:45:44;97305.38;;;-11.65
78917;BMP280;68315;48.608;11.436;2023-12-04T03:48:10;97298.19;;;-11.68
78917;BMP280;68315;48.608;11.436;2023-12-04T03:50:35;97299.31;;;-11.69
78917;BMP280;68315;48.608;11.436;2023-12-04T03:53:00;97297.38;;;-11.72
78917;BMP280;68315;48.608;11.436;2023-12-04T03:55:25;97290.94;;;-11.74
78917;BMP280;68315;48.608;11.436;2023-12-04T03:57:52;97283.38;;;-11.72
78917;BMP280;68315;48.608;11.436;2023-12-04T04:00:17;97267.13;;;-11.71
78917;BMP280;68315;48.608;11.436;2023-12-04T04:02:43;97266.75;;;-11.69
78917;BMP280;68315;48.608;11.436;2023-12-04T04:05:09;97268.66;;;-11.66
78917;BMP280;68315;48.608;11.436;2023-12-04T04:07:34;97267.53;;;-11.69
78917;BMP280;68315;48.608;11.436;2023-12-04T04:09:59;97261.47;;;-11.69
78917;BMP280;68315;48.608;11.436;2023-12-04T04:12:26;97262.63;;;-11.63
78917;BMP280;68315;48.608;11.436;2023-12-04T04:14:51;97255.06;;;-11.61
78917;BMP280;68315;48.608;11.436;2023-12-04T04:17:17;97261.13;;;-11.57
78917;BMP280;68315;48.608;11.436;2023-12-04T04:19:42;97248.28;;;-11.55
78917;BMP280;68315;48.608;11.436;2023-12-04T04:22:07;97254.72;;;-11.56
78917;BMP280;68315;48.608;11.436;2023-12-04T04:24:32;97248.66;;;-11.56
78917;BMP280;68315;48.608;11.436;2023-12-04T04:26:57;97242.22;;;-11.59
78917;BMP280;68315;48.608;11.436;2023-12-04T04:29:23;97253.19;;;-11.60
78917;BMP280;68315;48.608;11.436;2023-12-04T04:31:48;97243.72;;;-11.61
78917;BMP280;68315;48.608;11.436;2023-12-04T04:34:13;97251.69;;;-11.61
78917;BMP280;68315;48.608;11.436;2023-12-04T04:36:38;97249.75;;;-11.65
78917;BMP280;68315;48.608;11.436;2023-12-04T04:39:04;97247.75;;;-11.78
78917;BMP280;68315;48.608;11.436;2023-12-04T04:41:30;97254.88;;;-11.96
78917;BMP280;68315;48.608;11.436;2023-12-04T04:43:55;97252.91;;;-12.10
78917;BMP280;68315;48.608;11.436;2023-12-04T04:46:20;97252.47;;;-12.16
78917;BMP280;68315;48.608;11.436;2023-12-04T04:48:45;97240.34;;;-12.17
78917;BMP280;68315;48.608;11.436;2023-12-04T04:51:11;97248.69;;;-12.15
78917;BMP280;68315;48.608;11.436;2023-12-04T04:53:36;97248.97;;;-12.30
78917;BMP280;68315;48.608;11.436;2023-12-04T04:56:01;97236.38;;;-12.47
78917;BMP280;68315;48.608;11.436;2023-12-04T04:58:26;97233.97;;;-12.60
78917;BMP280;68315;48.608;11.436;2023-12-04T05:00:52;97227.53;;;-12.62
78917;BMP280;68315;48.608;11.436;2023-12-04T05:03:17;97229.78;;;-12.64
78917;BMP280;68315;48.608;11.436;2023-12-04T05:05:42;97227.91;;;-12.64
78917;BMP280;68315;48.608;11.436;2023-12-04T05:08:07;97229.06;;;-12.58
78917;BMP280;68315;48.608;11.436;2023-12-04T05:10:33;97222.38;;;-12.48
78917;BMP280;68315;48.608;11.436;2023-12-04T05:12:58;97219.00;;;-12.41
78917;BMP280;68315;48.608;11.436;2023-12-04T05:15:23;97205.44;;;-12.36
78917;BMP280;68315;48.608;11.436;2023-12-04T05:17:48;97209.59;;;-12.35
78917;BMP280;68315;48.608;11.436;2023-12-04T05:20:14;97201.31;;;-12.34
78917;BMP280;68315;48.608;11.436;2023-12-04T05:22:39;97191.50;;;-12.30
78917;BMP280;68315;48.608;11.436;2023-12-04T05:25:05;97194.88;;;-12.29
78917;BMP280;68315;48.608;11.436;2023-12-04T05:27:31;97186.59;;;-12.28
78917;BMP280;68315;48.608;11.436;2023-12-04T05:29:56;97189.63;;;-12.26
78917;BMP280;68315;48.608;11.436;2023-12-04T05:32:21;97199.47;;;-12.23
78917;BMP280;68315;48.608;11.436;2023-12-04T05:34:46;97201.00;;;-12.22
78917;BMP280;68315;48.608;11.436;2023-12-04T05:37:12;97203.34;;;-12.13
78917;BMP280;68315;48.608;11.436;2023-12-04T05:39:37;97190.53;;;-12.04
78917;BMP280;68315;48.608;11.436;2023-12-04T05:42:02;97188.69;;;-11.96
78917;BMP280;68315;48.608;11.436;2023-12-04T05:44:28;97194.72;;;-11.92
78917;BMP280;68315;48.608;11.436;2023-12-04T05:46:53;97198.56;;;-11.90
78917;BMP280;68315;48.608;11.436;2023-12-04T05:49:18;97205.00;;;-11.87
78917;BMP280;68315;48.608;11.436;2023-12-04T05:51:44;97212.25;;;-11.74
78917;BMP280;68315;48.608;11.436;2023-12-04T05:54:09;97214.19;;;-11.67
78917;BMP280;68315;48.608;11.436;2023-12-04T05:56:34;97209.25;;;-11.65
78917;BMP280;68315;48.608;11.436;2023-12-04T05:58:59;97218.31;;;-11.66
78917;BMP280;68315;48.608;11.436;2023-12-04T06:01:24;97212.22;;;-11.77
78917;BMP280;68315;48.608;11.436;2023-12-04T06:03:50;97206.13;;;-11.88
78917;BMP280;68315;48.608;11.436;2023-12-04T06:06:15;97199.66;;;-11.94
78917;BMP280;68315;48.608;11.436;2023-12-04T06:08:40;97194.38;;;-11.91
78917;BMP280;68315;48.608;11.436;2023-12-04T06:11:06;97186.47;;;-11.87
78917;BMP280;68315;48.608;11.436;2023-12-04T06:13:31;97179.28;;;-11.83
78917;BMP280;68315;48.608;11.436;2023-12-04T06:15:56;97178.16;;;-11.82
78917;BMP280;68315;48.608;11.436;2023-12-04T06:18:22;97171.75;;;-11.81
78917;BMP280;68315;48.608;11.436;2023-12-04T06:20:47;97170.63;;;-11.77
78917;BMP280;68315;48.608;11.436;2023-12-04T06:23:12;97164.94;;;-11.79
78917;BMP280;68315;48.608;11.436;2023-12-04T06:25:38;97165.66;;;-11.85
78917;BMP280;68315;48.608;11.436;2023-12-04T06:28:04;97159.97;;;-11.84
78917;BMP280;68315;48.608;11.436;2023-12-04T06:30:29;97158.88;;;-11.83
78917;BMP280;68315;48.608;11.436;2023-12-04T06:32:55;97152.06;;;-11.80
78917;BMP280;68315;48.608;11.436;2023-12-04T06:35:20;97151.31;;;-11.74
78917;BMP280;68315;48.608;11.436;2023-12-04T06:37:48;97143.00;;;-11.72
78917;BMP280;68315;48.608;11.436;2023-12-04T06:40:13;97140.00;;;-11.67
78917;BMP280;68315;48.608;11.436;2023-12-04T06:42:39;97140.72;;;-11.74
78917;BMP280;68315;48.608;11.436;2023-12-04T06:45:05;97140.72;;;-11.77
78917;BMP280;68315;48.608;11.436;2023-12-04T06:47:34;97133.50;;;-11.80
78917;BMP280;68315;48.608;11.436;2023-12-04T06:49:59;97141.50;;;-11.73
78917;BMP280;68315;48.608;11.436;2023-12-04T06:52:25;97133.56;;;-11.70
78917;BMP280;68315;48.608;11.436;2023-12-04T06:54:50;97139.25;;;-11.68
78917;BMP280;68315;48.608;11.436;2023-12-04T06:57:15;97143.41;;;-11.67
78917;BMP280;68315;48.608;11.436;2023-12-04T06:59:42;97138.88;;;-11.63
78917;BMP280;68315;48.608;11.436;2023-12-04T07:02:07;97142.66;;;-11.56
78917;BMP280;68315;48.608;11.436;2023-12-04T07:04:32;97140.41;;;-11.54
78917;BMP280;68315;48.608;11.436;2023-12-04T07:06:58;97132.47;;;-11.54
78917;BMP280;68315;48.608;11.436;2023-12-04T07:09:26;97126.41;;;-11.55
78917;BMP280;68315;48.608;11.436;2023-12-04T07:11:52;97131.31;;;-11.50
78917;BMP280;68315;48.608;11.436;2023-12-04T07:14:17;97126.03;;;-11.53
78917;BMP280;68315;48.608;11.436;2023-12-04T07:16:43;97116.56;;;-11.54
78917;BMP280;68315;48.608;11.436;2023-12-04T07:19:09;97121.91;;;-11.47
78917;BMP280;68315;48.608;11.436;2023-12-04T07:21:34;97113.56;;;-11.42
78917;BMP280;68315;48.608;11.436;2023-12-04T07:24:00;97113.59;;;-11.32
78917;BMP280;68315;48.608;11.436;2023-12-04T07:26:25;97114.75;;;-11.22
78917;BMP280;68315;48.608;11.436;2023-12-04T07:28:50;97115.50;;;-11.14
78917;BMP280;68315;48.608;11.436;2023-12-04T07:31:15;97113.59;;;-11.14
78917;BMP280;68315;48.608;11.436;2023-12-04T07:33:40;97099.97;;;-11.09
78917;BMP280;68315;48.608;11.436;2023-12-04T07:36:06;97087.81;;;-10.96
78917;BMP280;68315;48.608;11.436;2023-12-04T07:38:32;97090.09;;;-10.87
78917;BMP280;68315;48.608;11.436;2023-12-04T07:40:57;97074.19;;;-10.80
78917;BMP280;68315;48.608;11.436;2023-12-04T07:43:22;97063.94;;;-10.82
78917;BMP280;68315;48.608;11.436;2023-12-04T07:45:47;97063.19;;;-10.82
78917;BMP280;68315;48.608;11.436;2023-12-04T07:48:13;97056.00;;;-10.78
78917;BMP280;68315;48.608;11.436;2023-12-04T07:50:38;97060.13;;;-10.74
78917;BMP280;68315;48.608;11.436;2023-12-04T07:53:03;97063.56;;;-10.66
78917;BMP280;68315;48.608;11.436;2023-12-04T07:55:29;97056.31;;;-10.51
78917;BMP280;68315;48.608;11.436;2023-12-04T07:57:54;97058.16;;;-10.41
78917;BMP280;68315;48.608;11.436;2023-12-04T08:00:20;97057.41;;;-10.35
78917;BMP280;68315;48.608;11.436;2023-12-04T08:02:47;97061.91;;;-10.28
78917;BMP280;68315;48.608;11.436;2023-12-04T08:05:13;97069.47;;;-10.23
78917;BMP280;68315;48.608;11.436;2023-12-04T08:07:38;97065.66;;;-10.22
78917;BMP280;68315;48.608;11.436;2023-12-04T08:10:04;97075.91;;;-10.13
78917;BMP280;68315;48.608;11.436;2023-12-04T08:12:30;97087.16;;;-9.92
78917;BMP280;68315;48.608;11.436;2023-12-04T08:14:55;97084.41;;;-9.74
78917;BMP280;68315;48.608;11.436;2023-12-04T08:17:20;97091.53;;;-9.57
78917;BMP280;68315;48.608;11.436;2023-12-04T08:19:45;97084.66;;;-9.47
78917;BMP280;68315;48.608;11.436;2023-12-04T08:22:11;97083.03;;;-9.34
78917;BMP280;68315;48.608;11.436;2023-12-04T08:24:36;97083.25;;;-9.18
78917;BMP280;68315;48.608;11.436;2023-12-04T08:27:01;97081.59;;;-9.01
78917;BMP280;68315;48.608;11.436;2023-12-04T08:29:26;97082.25;;;-8.87
78917;BMP280;68315;48.608;11.436;2023-12-04T08:31:51;97083.63;;;-8.71
78917;BMP280;68315;48.608;11.436;2023-12-04T08:34:17;97081.59;;;-8.60
78917;BMP280;68315;48.608;11.436;2023-12-04T08:36:42;97068.56;;;-8.48
78917;BMP280;68315;48.608;11.436;2023-12-04T08:39:07;97070.97;;;-8.26
78917;BMP280;68315;48.608;11.436;2023-12-04T08:41:32;97069.28;;;-8.13
78917;BMP280;68315;48.608;11.436;2023-12-04T08:43:58;97061.09;;;-7.99
78917;BMP280;68315;48.608;11.436;2023-12-04T08:46:23;97056.34;;;-7.88
78917;BMP280;68315;48.608;11.436;2023-12-04T08:48:49;97058.19;;;-7.81
78917;BMP280;68315;48.608;11.436;2023-12-04T08:51:17;97064.19;;;-7.74
78917;BMP280;68315;48.608;11.436;2023-12-04T08:53:43;97062.56;;;-7.68
78917;BMP280;68315;48.608;11.436;2023-12-04T08:56:09;97056.06;;;-7.67
78917;BMP280;68315;48.608;11.436;2023-12-04T08:58:35;97062.63;;;-7.71
78917;BMP280;68315;48.608;11.436;2023-12-04T09:01:00;97062.72;;;-7.78
78917;BMP280;68315;48.608;11.436;2023-12-04T09:03:25;97070.16;;;-7.66
78917;BMP280;68315;48.608;11.436;2023-12-04T09:05:50;97075.28;;;-7.52
78917;BMP280;68315;48.608;11.436;2023-12-04T09:08:17;97062.84;;;-7.35
78917;BMP280;68315;48.608;11.436;2023-12-04T09:10:43;97065.16;;;-7.14
78917;BMP280;68315;48.608;11.436;2023-12-04T09:13:09;97067.44;;;-6.93
78917;BMP280;68315;48.608;11.436;2023-12-04T09:15:34;97064.75;;;-6.70
78917;BMP280;68315;48.608;11.436;2023-12-04T09:17:59;97073.75;;;-6.40
78917;BMP280;68315;48.608;11.436;2023-12-04T09:20:25;97069.94;;;-6.23
78917;BMP280;68315;48.608;11.436;2023-12-04T09:22:50;97064.53;;;-6.20
78917;BMP280;68315;48.608;11.436;2023-12-04T09:25:16;97055.78;;;-6.04
78917;BMP280;68315;48.608;11.436;2023-12-04T09:27:42;97046.16;;;-5.82
78917;BMP280;68315;48.608;11.436;2023-12-04T09:30:07;97046.91;;;-5.65
78917;BMP280;68315;48.608;11.436;2023-12-04T09:32:33;97040.41;;;-5.48
78917;BMP280;68315;48.608;11.436;2023-12-04T09:34:58;97037.03;;;-5.36
78917;BMP280;68315;48.608;11.436;2023-12-04T09:37:24;97047.81;;;-5.23
78917;BMP280;68315;48.608;11.436;2023-12-04T09:39:49;97034.81;;;-5.09
78917;BMP280;68315;48.608;11.436;2023-12-04T09:42:15;97030.69;;;-4.97
78917;BMP280;68315;48.608;11.436;2023-12-04T09:44:43;97041.75;;;-4.82
78917;BMP280;68315;48.608;11.436;2023-12-04T09:47:09;97037.53;;;-4.67
78917;BMP280;68315;48.608;11.436;2023-12-04T09:49:35;97034.13;;;-4.55
78917;BMP280;68315;48.608;11.436;2023-12-04T09:52:01;97039.38;;;-4.52
78917;BMP280;68315;48.608;11.436;2023-12-04T09:54:30;97031.34;;;-4.52
78917;BMP280;68315;48.608;11.436;2023-12-04T09:56:56;97030.94;;;-4.50
78917;BMP280;68315;48.608;11.436;2023-12-04T09:59:23;97027.56;;;-4.54
78917;BMP280;68315;48.608;11.436;2023-12-04T10:01:50;97027.50;;;-4.51
78917;BMP280;68315;48.608;11.436;2023-12-04T10:04:16;97030.69;;;-4.56
78917;BMP280;68315;48.608;11.436;2023-12-04T10:06:42;97014.50;;;-4.65
78917;BMP280;68315;48.608;11.436;2023-12-04T10:09:08;97013.97;;;-4.60
78917;BMP280;68315;48.608;11.436;2023-12-04T10:11:39;97013.03;;;-4.53
78917;BMP280;68315;48.608;11.436;2023-12-04T10:14:14;96997.81;;;-4.31
78917;BMP280;68315;48.608;11.436;2023-12-04T10:16:39;96993.22;;;-4.05
78917;BMP280;68315;48.608;11.436;2023-12-04T10:19:34;96993.81;;;-3.76
78917;BMP280;68315;48.608;11.436;2023-12-04T10:21:59;96996.78;;;-3.61
78917;BMP280;68315;48.608;11.436;2023-12-04T10:24:29;96981.69;;;-3.68
78917;BMP280;68315;48.608;11.436;2023-12-04T10:26:55;96992.09;;;-3.70
78917;BMP280;68315;48.608;11.436;2023-12-04T10:29:22;96978.56;;;-3.66
78917;BMP280;68315;48.608;11.436;2023-12-04T10:31:47;96964.56;;;-3.61
78917;BMP280;68315;48.608;11.436;2023-12-04T10:34:15;96953.09;;;-3.62
78917;BMP280;68315;48.608;11.436;2023-12-04T10:36:40;96947.09;;;-3.66
78917;BMP280;68315;48.608;11.436;2023-12-04T10:39:06;96939.03;;;-3.66
78917;BMP280;68315;48.608;11.436;2023-12-04T10:41:33;96941.31;;;-3.64
78917;BMP280;68315;48.608;11.436;2023-12-04T10:43:59;96934.63;;;-3.60
78917;BMP280;68315;48.608;11.436;2023-12-04T10:46:26;96923.88;;;-3.60
78917;BMP280;68315;48.608;11.436;2023-12-04T10:48:52;96918.41;;;-3.56
78917;BMP280;68315;48.608;11.436;2023-12-04T10:51:18;96921.09;;;-3.56
78917;BMP280;68315;48.608;11.436;2023-12-04T10:53:44;96910.47;;;-3.60
78917;BMP280;68315;48.608;11.436;2023-12-04T10:56:14;96910.59;;;-3.63
78917;BMP280;68315;48.608;11.436;2023-12-04T10:58:43;96906.72;;;-3.62
78917;BMP280;68315;48.608;11.436;2023-12-04T11:01:12;96891.97;;;-3.58
78917;BMP280;68315;48.608;11.436;2023-12-04T11:03:44;96893.78;;;-3.55
78917;BMP280;68315;48.608;11.436;2023-12-04T11:06:10;96882.47;;;-3.50
78917;BMP280;68315;48.608;11.436;2023-12-04T11:08:39;96891.38;;;-3.40
78917;BMP280;68315;48.608;11.436;2023-12-04T11:11:10;96889.50;;;-3.30
78917;BMP280;68315;48.608;11.436;2023-12-04T11:13:41;96896.09;;;-3.22
78917;BMP280;68315;48.608;11.436;2023-12-04T11:19:06;96891.44;;;-3.31
78917;BMP280;68315;48.608;11.436;2023-12-04T11:21:36;96885.13;;;-3.37
78917;BMP280;68315;48.608;11.436;2023-12-04T11:24:03;96879.19;;;-3.32
78917;BMP280;68315;48.608;11.436;2023-12-04T11:26:31;96883.97;;;-3.27
78917;BMP280;68315;48.608;11.436;2023-12-04T11:28:56;96876.16;;;-3.12
78917;BMP280;68315;48.608;11.436;2023-12-04T11:31:23;96871.59;;;-3.03
78917;BMP280;68315;48.608;11.436;2023-12-04T11:33:48;96866.00;;;-2.87
78917;BMP280;68315;48.608;11.436;2023-12-04T11:36:14;96860.22;;;-2.67
78917;BMP280;68315;48.608;11.436;2023-12-04T11:38:44;96865.09;;;-2.44
78917;BMP280;68315;48.608;11.436;2023-12-04T11:41:22;96867.22;;;-2.30
78917;BMP280;68315;48.608;11.436;2023-12-04T11:43:48;96868.09;;;-2.33
78917;BMP280;68315;48.608;11.436;2023-12-04T11:46:19;96871.06;;;-2.49
78917;BMP280;68315;48.608;11.436;2023-12-04T11:48:55;96871.81;;;-2.57
78917;BMP280;68315;48.608;11.436;2023-12-04T11:54:04;96872.31;;;-2.22
78917;BMP280;68315;48.608;11.436;2023-12-04T11:56:30;96865.91;;;-2.16
78917;BMP280;68315;48.608;11.436;2023-12-04T11:59:02;96851.25;;;-2.15
78917;BMP280;68315;48.608;11.436;2023-12-04T12:01:28;96845.72;;;-2.20
78917;BMP280;68315;48.608;11.436;2023-12-04T12:03:58;96855.13;;;-2.25
78917;BMP280;68315;48.608;11.436;2023-12-04T12:06:23;96847.94;;;-2.28
78917;BMP280;68315;48.608;11.436;2023-12-04T12:08:49;96858.53;;;-2.34
78917;BMP280;68315;48.608;11.436;2023-12-04T12:11:15;96843.00;;;-2.39
78917;BMP280;68315;48.608;11.436;2023-12-04T12:13:41;96845.53;;;-2.35
78917;BMP280;68315;48.608;11.436;2023-12-04T12:16:06;96839.69;;;-2.34
78917;BMP280;68315;48.608;11.436;2023-12-04T12:18:34;96841.34;;;-2.36
78917;BMP280;68315;48.608;11.436;2023-12-04T12:20:59;96834.63;;;-2.41
78917;BMP280;68315;48.608;11.436;2023-12-04T12:23:26;96834.59;;;-2.50
78917;BMP280;68315;48.608;11.436;2023-12-04T12:25:52;96844.53;;;-2.77
78917;BMP280;68315;48.608;11.436;2023-12-04T12:28:17;96848.72;;;-3.07
78917;BMP280;68315;48.608;11.436;2023-12-04T12:30:42;96847.25;;;-3.30
78917;BMP280;68315;48.608;11.436;2023-12-04T12:33:13;96842.28;;;-3.41
78917;BMP280;68315;48.608;11.436;2023-12-04T12:35:38;96850.25;;;-3.50
78917;BMP280;68315;48.608;11.436;2023-12-04T12:38:03;96834.84;;;-3.58
78917;BMP280;68315;48.608;11.436;2023-12-04T12:40:28;96830.88;;;-3.54
78917;BMP280;68315;48.608;11.436;2023-12-04T12:43:06;96825.13;;;-3.43
78917;BMP280;68315;48.608;11.436;2023-12-04T12:45:44;96829.53;;;-3.49
78917;BMP280;68315;48.608;11.436;2023-12-04T12:48:13;96831.25;;;-3.64
78917;BMP280;68315;48.608;11.436;2023-12-04T12:50:39;96832.94;;;-3.79
78917;BMP280;68315;48.608;11.436;2023-12-04T12:53:04;96828.38;;;-3.92
78917;BMP280;68315;48.608;11.436;2023-12-04T12:55:30;96825.56;;;-3.88
78917;BMP280;68315;48.608;11.436;2023-12-04T12:57:55;96817.06;;;-3.87
78917;BMP280;68315;48.608;11.436;2023-12-04T13:00:21;96806.50;;;-3.81
78917;BMP280;68315;48.608;11.436;2023-12-04T13:02:47;96808.88;;;-3.70
78917;BMP280;68315;48.608;11.436;2023-12-04T13:05:13;96814.75;;;-3.54
78917;BMP280;68315;48.608;11.436;2023-12-04T13:07:38;96806.81;;;-3.36
78917;BMP280;68315;48.608;11.436;2023-12-04T13:10:03;96789.28;;;-3.18
78917;BMP280;68315;48.608;11.436;2023-12-04T13:12:30;96775.69;;;-2.84
78917;BMP280;68315;48.608;11.436;2023-12-04T13:14:55;96790.22;;;-2.45
78917;BMP280;68315;48.608;11.436;2023-12-04T13:17:21;96775.03;;;-2.12
78917;BMP280;68315;48.608;11.436;2023-12-04T13:19:46;96780.06;;;-1.78
78917;BMP280;68315;48.608;11.436;2023-12-04T13:22:11;96773.09;;;-1.42
78917;BMP280;68315;48.608;11.436;2023-12-04T13:24:36;96768.59;;;-1.03
78917;BMP280;68315;48.608;11.436;2023-12-04T13:27:02;96762.91;;;-0.58
78917;BMP280;68315;48.608;11.436;2023-12-04T13:29:27;96773.69;;;-0.34
78917;BMP280;68315;48.608;11.436;2023-12-04T13:31:52;96775.91;;;-0.33
78917;BMP280;68315;48.608;11.436;2023-12-04T13:34:18;96778.28;;;-0.49
78917;BMP280;68315;48.608;11.436;2023-12-04T13:36:43;96795.63;;;-0.89
78917;BMP280;68315;48.608;11.436;2023-12-04T13:39:09;96780.19;;;-1.63
78917;BMP280;68315;48.608;11.436;2023-12-04T13:41:43;96766.06;;;-2.18
78917;BMP280;68315;48.608;11.436;2023-12-04T13:44:27;96768.72;;;-2.36
78917;BMP280;68315;48.608;11.436;2023-12-04T13:46:52;96760.50;;;-2.42